Time;durP1;ratioP1;P1;durP2;ratioP2;P2;SDS_P1;SDS_P2;PMS_P1;PMS_P2;Temp;Humidity;BMP_temperature;BMP_pressure;BME280_temperature;BME280_humidity;BME280_pressure;Samples;Min_cycle;Max_cycle;Signal;HPM_P1;HPM_P2
2022/08/22 00:02:04;;;;;;;3.50;3.00;;;14.30;99.90;;;;;;5012430;28;20095;-41
2022/08/22 00:04:47;;;;;;;4.80;3.35;;;14.40;99.90;;;;;;5009439;28;20096;-38
2022/08/22 00:07:45;;;;;;;5.13;3.40;;;14.50;99.90;;;;;;5015917;28;20024;-41
2022/08/22 00:10:34;;;;;;;4.38;3.05;;;14.50;99.90;;;;;;5012375;28;20115;-37
2022/08/22 00:13:11;;;;;;;4.65;3.15;;;14.50;99.90;;;;;;5012265;28;20049;-37
2022/08/22 00:15:50;;;;;;;4.03;3.08;;;14.60;99.90;;;;;;5007352;28;20033;-41
2022/08/22 00:18:49;;;;;;;4.15;3.45;;;14.60;99.90;;;;;;5009762;28;20635;-37
2022/08/22 00:21:37;;;;;;;3.80;2.88;;;14.60;99.90;;;;;;5010524;28;20434;-40
2022/08/22 00:24:40;;;;;;;3.63;3.17;;;14.60;99.90;;;;;;5013169;28;20125;-39
2022/08/22 00:27:11;;;;;;;4.82;3.20;;;14.70;99.90;;;;;;5007718;28;20572;-41
2022/08/22 00:29:40;;;;;;;6.22;3.40;;;14.70;99.90;;;;;;5012211;28;21652;-40
2022/08/22 00:32:28;;;;;;;4.50;3.40;;;14.60;99.90;;;;;;5009968;28;20088;-41
2022/08/22 00:35:01;;;;;;;4.13;3.30;;;14.40;99.90;;;;;;5010574;28;20033;-36
2022/08/22 00:37:33;;;;;;;4.95;3.22;;;14.40;99.90;;;;;;5011945;28;20068;-41
2022/08/22 00:40:04;;;;;;;6.75;3.20;;;14.40;99.90;;;;;;5012954;28;20045;-40
2022/08/22 00:42:41;;;;;;;3.83;3.17;;;14.40;99.90;;;;;;5013985;28;20033;-38
2022/08/22 00:45:29;;;;;;;4.70;3.33;;;14.40;99.90;;;;;;5010992;28;20056;-40
2022/08/22 00:48:16;;;;;;;7.13;3.10;;;14.40;99.90;;;;;;5012993;28;20022;-38
2022/08/22 00:50:56;;;;;;;4.53;3.00;;;14.40;99.90;;;;;;5012478;28;20037;-41
2022/08/22 00:53:56;;;;;;;6.28;3.58;;;14.40;99.90;;;;;;5013009;28;20655;-41
2022/08/22 00:56:29;;;;;;;4.03;2.83;;;14.40;99.90;;;;;;5013235;28;20021;-40
2022/08/22 00:59:07;;;;;;;4.07;3.42;;;14.40;99.90;;;;;;5010342;28;20038;-39
2022/08/22 01:01:42;;;;;;;4.28;3.55;;;14.50;99.90;;;;;;5011148;28;20037;-41
2022/08/22 01:04:57;;;;;;;3.63;2.90;;;14.20;99.90;;;;;;5007228;28;20018;-39
2022/08/22 01:07:28;;;;;;;4.38;2.72;;;14.20;99.90;;;;;;4913409;29;20568;-39
2022/08/22 01:10:35;;;;;;;3.80;3.00;;;14.30;99.90;;;;;;5008900;28;20129;-40
2022/08/22 01:13:03;;;;;;;3.40;3.10;;;14.40;99.90;;;;;;5018470;28;20037;-40
2022/08/22 01:15:33;;;;;;;4.40;2.95;;;14.20;99.90;;;;;;5015106;28;20076;-38
2022/08/22 01:18:22;;;;;;;3.88;3.00;;;14.20;99.90;;;;;;5002065;28;20132;-41
2022/08/22 01:21:22;;;;;;;4.50;2.60;;;14.20;99.90;;;;;;5014412;28;20100;-41
2022/08/22 01:24:18;;;;;;;5.07;2.80;;;14.10;99.90;;;;;;5011009;28;20051;-41
2022/08/22 01:27:05;;;;;;;5.78;3.00;;;14.20;99.90;;;;;;5008708;28;20038;-37
2022/08/22 01:29:55;;;;;;;4.57;3.10;;;14.20;99.90;;;;;;5016912;28;20029;-42
2022/08/22 01:32:39;;;;;;;2.58;2.22;;;14.30;99.90;;;;;;5014247;28;20124;-41
2022/08/22 01:35:30;;;;;;;2.65;1.83;;;14.30;99.90;;;;;;5012331;28;20441;-40
2022/08/22 01:38:22;;;;;;;3.13;2.30;;;13.70;99.90;;;;;;5012845;28;20670;-41
2022/08/22 01:41:22;;;;;;;3.65;2.90;;;13.60;99.90;;;;;;5018998;28;20067;-40
2022/08/22 01:44:20;;;;;;;4.25;3.22;;;13.60;99.90;;;;;;5004370;28;20047;-41
2022/08/22 01:47:11;;;;;;;2.85;2.55;;;13.60;99.90;;;;;;5012644;28;20037;-40
2022/08/22 01:49:49;;;;;;;4.40;3.05;;;13.70;99.90;;;;;;5013875;28;20045;-41
2022/08/22 01:52:27;;;;;;;2.97;2.70;;;13.80;99.90;;;;;;5012671;28;21071;-40
2022/08/22 01:55:00;;;;;;;9.38;3.13;;;13.80;99.90;;;;;;5010065;28;20160;-42
2022/08/22 01:57:27;;;;;;;3.25;2.95;;;13.90;99.90;;;;;;5010268;28;20051;-39
2022/08/22 02:00:06;;;;;;;5.10;3.75;;;13.90;99.90;;;;;;5016667;28;20075;-42
2022/08/22 02:03:16;;;;;;;3.78;2.90;;;13.80;99.90;;;;;;5020840;28;20045;-42
2022/08/22 02:06:10;;;;;;;4.68;2.97;;;13.60;99.90;;;;;;5016559;28;20037;-40
2022/08/22 02:09:03;;;;;;;5.60;3.10;;;13.70;99.90;;;;;;5023099;28;20058;-41
2022/08/22 02:12:10;;;;;;;3.33;2.80;;;13.60;99.90;;;;;;5017209;28;20026;-40
2022/08/22 02:14:54;;;;;;;6.97;3.10;;;13.60;99.90;;;;;;4999643;28;20033;-41
2022/08/22 02:17:26;;;;;;;3.00;2.60;;;13.50;99.90;;;;;;4990649;28;20312;-42
2022/08/22 02:20:20;;;;;;;6.90;4.05;;;13.50;99.90;;;;;;5012267;28;20463;-41
2022/08/22 02:22:59;;;;;;;3.30;3.00;;;13.60;99.90;;;;;;5026038;28;20167;-40
2022/08/22 02:25:31;;;;;;;4.82;3.25;;;13.50;99.90;;;;;;5015931;28;20084;-37
2022/08/22 02:28:02;;;;;;;3.15;2.72;;;13.60;99.90;;;;;;5012187;28;20056;-42
2022/08/22 02:30:54;;;;;;;2.67;2.47;;;13.60;99.90;;;;;;5015970;28;20021;-42
2022/08/22 02:33:38;;;;;;;3.45;2.30;;;13.20;99.90;;;;;;5026182;28;20067;-39
2022/08/22 02:36:31;;;;;;;2.50;2.20;;;13.30;99.90;;;;;;5030807;28;20069;-41
2022/08/22 02:39:24;;;;;;;4.35;2.60;;;13.20;99.90;;;;;;5026891;28;20040;-42
2022/08/22 02:42:11;;;;;;;3.40;3.08;;;13.20;99.90;;;;;;5027457;28;20038;-42
2022/08/22 02:44:49;;;;;;;4.00;2.85;;;13.20;99.90;;;;;;5026666;28;20033;-42
2022/08/22 02:47:50;;;;;;;3.67;3.22;;;13.30;99.90;;;;;;5025618;28;20041;-42
2022/08/22 02:50:53;;;;;;;3.20;2.67;;;13.20;99.90;;;;;;5026257;28;20034;-41
2022/08/22 02:53:55;;;;;;;3.90;2.90;;;13.20;99.90;;;;;;5015131;28;20045;-42
2022/08/22 02:56:36;;;;;;;3.75;2.90;;;13.00;99.90;;;;;;5021948;28;20038;-39
2022/08/22 02:59:20;;;;;;;3.10;2.80;;;13.00;99.90;;;;;;5022457;28;20037;-39
2022/08/22 03:01:47;;;;;;;3.22;2.75;;;13.00;99.90;;;;;;5054534;28;20045;-37
2022/08/22 03:04:42;;;;;;;3.17;2.88;;;13.10;99.90;;;;;;5025399;28;20038;-41
2022/08/22 03:07:20;;;;;;;4.82;2.95;;;13.10;99.90;;;;;;5026787;28;20112;-39
2022/08/22 03:10:29;;;;;;;4.22;3.00;;;13.10;99.90;;;;;;5020052;28;20088;-41
2022/08/22 03:13:25;;;;;;;4.38;3.05;;;13.10;99.90;;;;;;5022962;28;20045;-40
2022/08/22 03:15:59;;;;;;;3.80;3.35;;;13.10;99.90;;;;;;5013227;28;20116;-42
2022/08/22 03:18:40;;;;;;;4.50;3.20;;;13.10;99.90;;;;;;5023483;28;20034;-41
2022/08/22 03:21:17;;;;;;;3.95;2.90;;;13.10;99.90;;;;;;5027923;28;20099;-40
2022/08/22 03:24:15;;;;;;;3.72;2.78;;;13.20;99.90;;;;;;5031004;28;20100;-41
2022/08/22 03:26:50;;;;;;;3.13;2.83;;;13.10;99.90;;;;;;4997690;28;20502;-40
2022/08/22 03:29:39;;;;;;;6.80;3.50;;;13.10;99.90;;;;;;5026712;28;20061;-40
2022/08/22 03:32:10;;;;;;;6.97;3.15;;;13.00;99.90;;;;;;5024377;28;20054;-41
2022/08/22 03:34:52;;;;;;;5.63;3.30;;;13.00;99.90;;;;;;5025401;28;20033;-42
2022/08/22 03:37:23;;;;;;;3.65;2.67;;;13.00;99.90;;;;;;5024491;28;20033;-41
2022/08/22 03:40:26;;;;;;;3.17;2.75;;;13.00;99.90;;;;;;5026364;28;20579;-40
2022/08/22 03:43:10;;;;;;;3.60;2.60;;;12.90;99.90;;;;;;5026677;28;20694;-39
2022/08/22 03:45:47;;;;;;;3.78;2.92;;;12.90;99.90;;;;;;5027295;28;20030;-42
2022/08/22 03:48:34;;;;;;;3.60;2.25;;;13.00;99.90;;;;;;4991623;23;20174;-78
2022/08/22 03:51:12;;;;;;;2.00;1.70;;;12.90;99.90;;;;;;4948304;28;20106;-78
2022/08/22 03:53:49;;;;;;;1.60;1.50;;;12.90;99.90;;;;;;4950767;28;20451;-78
2022/08/22 03:56:15;;;;;;;2.05;1.48;;;12.90;99.90;;;;;;4958547;28;20035;-78
2022/08/22 03:58:53;;;;;;;1.45;1.38;;;12.90;99.90;;;;;;4953243;28;20066;-78
2022/08/22 04:01:40;;;;;;;1.50;1.40;;;13.00;99.90;;;;;;4948827;28;20426;-78
2022/08/22 04:04:51;;;;;;;2.55;2.35;;;13.00;99.90;;;;;;4967235;28;20027;-78
2022/08/22 04:07:40;;;;;;;3.25;2.20;;;12.90;99.90;;;;;;4971802;28;20038;-79
2022/08/22 04:10:09;;;;;;;2.65;2.08;;;12.80;99.90;;;;;;4962688;28;20042;-78
2022/08/22 04:12:40;;;;;;;;;;;12.80;99.90;;;;;;4971594;28;20098;-78
2022/08/22 04:15:38;;;;;;;2.63;2.42;;;12.80;99.90;;;;;;4970556;28;19965;-78
2022/08/22 04:18:04;;;;;;;;;;;12.80;99.90;;;;;;4965670;28;20517;-79
2022/08/22 04:20:58;;;;;;;3.33;2.53;;;12.80;99.90;;;;;;4976660;28;19918;-78
2022/08/22 04:23:32;;;;;;;3.65;2.78;;;12.90;99.90;;;;;;4968850;28;20045;-78
2022/08/22 04:26:04;;;;;;;3.88;2.60;;;12.70;99.90;;;;;;4966087;28;20027;-78
2022/08/22 04:28:47;;;;;;;3.85;2.97;;;12.60;99.90;;;;;;4961759;28;20035;-78
2022/08/22 04:31:21;;;;;;;4.80;3.10;;;12.60;99.90;;;;;;4963002;28;20046;-78
2022/08/22 04:33:49;;;;;;;5.95;3.15;;;12.60;99.90;;;;;;4969644;28;20039;-78
2022/08/22 04:36:25;;;;;;;3.20;2.90;;;12.70;99.90;;;;;;4971022;28;20087;-78
2022/08/22 04:39:08;;;;;;;4.95;3.00;;;12.70;99.90;;;;;;4967195;28;20034;-78
2022/08/22 04:41:40;;;;;;;4.80;2.75;;;12.80;99.90;;;;;;4966946;28;20113;-78
2022/08/22 04:44:30;;;;;;;4.68;2.75;;;12.90;99.90;;;;;;4968168;28;20038;-78
2022/08/22 04:47:04;;;;;;;2.20;2.00;;;12.90;99.90;;;;;;4966314;28;20541;-79
2022/08/22 04:49:49;;;;;;;1.90;1.80;;;12.90;99.90;;;;;;4967326;28;20042;-78
2022/08/22 04:52:26;;;;;;;2.95;2.50;;;12.90;99.90;;;;;;4966797;28;20031;-78
2022/08/22 04:55:04;;;;;;;2.17;2.05;;;12.90;99.90;;;;;;4965228;28;20037;-78
2022/08/22 04:58:00;;;;;;;2.92;2.72;;;12.90;99.90;;;;;;4968982;28;20483;-78
2022/08/22 05:00:41;;;;;;;3.40;2.75;;;13.00;99.90;;;;;;4961404;28;20100;-78
2022/08/22 05:03:14;;;;;;;2.42;2.22;;;12.90;99.90;;;;;;4961047;28;20109;-78
2022/08/22 05:05:42;;;;;;;2.83;2.38;;;12.90;99.90;;;;;;4971035;28;20038;-78
2022/08/22 05:08:12;;;;;;;3.25;2.63;;;12.90;99.90;;;;;;4964912;28;20039;-78
2022/08/22 05:10:42;;;;;;;3.17;2.58;;;12.80;99.90;;;;;;4964665;28;20122;-78
2022/08/22 05:13:18;;;;;;;3.50;2.63;;;12.80;99.90;;;;;;4969489;28;20061;-78
2022/08/22 05:15:48;;;;;;;3.38;2.60;;;12.80;99.90;;;;;;4968689;28;20023;-79
2022/08/22 05:18:37;;;;;;;3.22;2.67;;;12.90;99.90;;;;;;4966156;28;20050;-78
2022/08/22 05:21:07;;;;;;;4.30;3.10;;;12.90;99.90;;;;;;4964597;28;20081;-78
2022/08/22 05:23:45;;;;;;;3.63;3.08;;;12.90;99.90;;;;;;4960704;28;20046;-78
2022/08/22 05:26:12;;;;;;;6.53;3.80;;;13.10;99.90;;;;;;4967712;28;20218;-77
2022/08/22 05:28:48;;;;;;;4.55;3.20;;;13.20;99.90;;;;;;4965472;28;20730;-78
2022/08/22 05:31:17;;;;;;;4.70;3.88;;;13.20;99.90;;;;;;4971248;28;20046;-78
2022/08/22 05:33:48;;;;;;;8.40;3.88;;;13.10;99.90;;;;;;4952251;28;20045;-77
2022/08/22 05:36:24;;;;;;;6.45;3.85;;;13.10;99.90;;;;;;4945922;28;20031;-77
2022/08/22 05:39:26;;;;;;;3.80;3.40;;;13.10;99.90;;;;;;4946007;28;20035;-77
2022/08/22 05:41:54;;;;;;;4.55;3.45;;;13.20;99.90;;;;;;4957042;28;20051;-78
2022/08/22 05:44:22;;;;;;;;;;;13.40;99.90;;;;;;4951317;28;20038;-77
2022/08/22 05:47:04;;;;;;;4.45;3.60;;;13.50;99.90;;;;;;4954730;28;19915;-78
2022/08/22 05:49:41;;;;;;;4.47;3.55;;;13.60;99.90;;;;;;4942528;28;20102;-78
2022/08/22 05:52:32;;;;;;;4.70;3.95;;;13.60;99.90;;;;;;4951162;28;20126;-77
2022/08/22 05:55:16;;;;;;;4.60;4.00;;;13.70;99.90;;;;;;4945176;28;20042;-78
2022/08/22 05:57:48;;;;;;;5.57;4.30;;;13.80;99.90;;;;;;4952979;28;20066;-78
2022/08/22 06:00:19;;;;;;;4.53;3.78;;;13.90;99.90;;;;;;4949291;28;20030;-78
2022/08/22 06:03:14;;;;;;;5.45;4.25;;;14.10;99.90;;;;;;4945345;28;20051;-78
2022/08/22 06:05:45;;;;;;;5.40;4.35;;;14.20;99.90;;;;;;4939738;28;20043;-78
2022/08/22 06:08:22;;;;;;;5.65;4.10;;;14.30;99.90;;;;;;4948830;28;20050;-78
2022/08/22 06:10:56;;;;;;;4.50;4.10;;;14.50;99.90;;;;;;4944720;28;20041;-78
2022/08/22 06:13:41;;;;;;;5.28;4.15;;;14.60;99.90;;;;;;4952145;28;20302;-78
2022/08/22 06:16:12;;;;;;;6.25;4.25;;;14.70;99.90;;;;;;4953271;28;20376;-78
2022/08/22 06:18:40;;;;;;;7.15;4.55;;;14.80;99.90;;;;;;4946550;28;20629;-78
2022/08/22 06:21:12;;;;;;;8.15;4.72;;;14.90;99.90;;;;;;4939917;28;20382;-78
2022/08/22 06:23:44;;;;;;;6.05;4.10;;;15.00;99.90;;;;;;4949777;28;20042;-78
2022/08/22 06:26:11;;;;;;;7.22;4.65;;;15.20;99.90;;;;;;4952650;28;20027;-78
2022/08/22 06:28:44;;;;;;;6.22;4.68;;;15.30;99.90;;;;;;4950868;28;20130;-78
2022/08/22 06:31:34;;;;;;;6.85;5.13;;;15.50;99.90;;;;;;4948428;28;20055;-78
2022/08/22 06:34:16;;;;;;;6.15;4.88;;;15.60;99.90;;;;;;4945012;28;20110;-78
2022/08/22 06:36:47;;;;;;;11.48;5.50;;;15.70;99.90;;;;;;4947152;28;20096;-78
2022/08/22 06:39:25;;;;;;;7.35;4.90;;;15.90;99.90;;;;;;4939200;28;20156;-79
2022/08/22 06:42:04;;;;;;;6.65;5.50;;;16.10;99.90;;;;;;4950447;28;20487;-78
2022/08/22 06:44:56;;;;;;;8.25;5.13;;;16.20;99.90;;;;;;4942072;28;20035;-78
2022/08/22 06:47:27;;;;;;;7.53;5.72;;;16.50;99.90;;;;;;4941175;28;20075;-78
2022/08/22 06:50:08;;;;;;;9.80;5.38;;;16.60;99.90;;;;;;4942221;28;20479;-78
2022/08/22 06:52:48;;;;;;;7.53;5.32;;;16.70;99.90;;;;;;4941965;28;20534;-78
2022/08/22 06:55:14;;;;;;;6.63;5.38;;;16.80;99.90;;;;;;4939403;28;20027;-78
2022/08/22 06:57:39;;;;;;;8.20;5.72;;;17.00;99.90;;;;;;4947802;28;20369;-78
2022/08/22 07:00:09;;;;;;;8.63;6.28;;;17.20;99.90;;;;;;4942261;28;20046;-78
2022/08/22 07:02:38;;;;;;;9.35;6.80;;;17.50;99.90;;;;;;4945512;28;20611;-78
2022/08/22 07:05:08;;;;;;;9.70;6.50;;;17.70;99.90;;;;;;4949087;28;20035;-79
2022/08/22 07:07:35;;;;;;;10.68;6.30;;;17.80;99.90;;;;;;4943861;28;20020;-78
2022/08/22 07:10:02;;;;;;;10.70;6.50;;;17.90;99.90;;;;;;4945934;28;20818;-78
2022/08/22 07:12:34;;;;;;;9.07;6.35;;;18.10;99.90;;;;;;4949788;28;20070;-78
2022/08/22 07:15:16;;;;;;;8.30;6.18;;;18.30;99.90;;;;;;4948730;28;20066;-78
2022/08/22 07:17:58;;;;;;;8.20;6.07;;;18.40;99.90;;;;;;4950362;28;20061;-78
2022/08/22 07:20:27;;;;;;;9.25;6.38;;;18.50;99.90;;;;;;4949135;28;20035;-78
2022/08/22 07:22:56;;;;;;;8.27;6.40;;;18.60;99.90;;;;;;4954542;28;20039;-77
2022/08/22 07:25:23;;;;;;;8.13;6.07;;;18.70;99.90;;;;;;4946656;28;20039;-77
2022/08/22 07:28:12;;;;;;;9.30;6.15;;;18.70;99.90;;;;;;4948556;28;20118;-78
2022/08/22 07:30:54;;;;;;;8.55;5.90;;;18.80;99.90;;;;;;4949918;28;20047;-78
2022/08/22 07:33:43;;;;;;;9.80;8.45;;;18.90;99.90;;;;;;4944580;28;20031;-78
2022/08/22 07:36:24;;;;;;;8.40;6.40;;;19.00;99.90;;;;;;4957758;28;20386;-78
2022/08/22 07:39:08;;;;;;;8.23;5.70;;;19.10;99.90;;;;;;4961238;28;20162;-78
2022/08/22 07:42:03;;;;;;;6.38;5.18;;;19.20;99.90;;;;;;4954285;28;20122;-78
2022/08/22 07:44:42;;;;;;;11.60;8.40;;;19.20;99.90;;;;;;4946847;28;20127;-80
2022/08/22 07:47:18;;;;;;;6.43;5.05;;;19.40;99.90;;;;;;4957767;28;20525;-77
2022/08/22 07:49:55;;;;;;;6.90;5.32;;;19.70;99.90;;;;;;4954492;28;20126;-80
2022/08/22 07:52:22;;;;;;;8.80;5.30;;;19.80;99.90;;;;;;4949810;28;20035;-78
2022/08/22 07:54:56;;;;;;;5.82;5.22;;;19.80;99.90;;;;;;4952990;28;20031;-78
2022/08/22 07:57:39;;;;;;;6.35;5.28;;;19.90;99.90;;;;;;4950851;28;20487;-78
2022/08/22 08:00:14;;;;;;;6.20;4.47;;;20.10;99.90;;;;;;4945482;28;20054;-78
2022/08/22 08:03:03;;;;;;;5.85;4.90;;;20.30;99.90;;;;;;4948114;28;20043;-78
2022/08/22 08:05:32;;;;;;;6.13;3.83;;;20.50;99.90;;;;;;4944838;28;20075;-77
2022/08/22 08:08:04;;;;;;;4.57;3.80;;;20.60;99.90;;;;;;4946197;28;20066;-77
2022/08/22 08:10:35;;;;;;;8.15;3.70;;;20.60;96.00;;;;;;4956950;28;20207;-77
2022/08/22 08:13:05;;;;;;;6.68;3.92;;;20.50;94.80;;;;;;4965237;28;20037;-76
2022/08/22 08:15:36;;;;;;;4.15;3.55;;;20.60;96.00;;;;;;4947996;28;20038;-77
2022/08/22 08:18:12;;;;;;;4.13;3.13;;;20.70;96.20;;;;;;4939769;28;20480;-77
2022/08/22 08:20:38;;;;;;;4.03;3.05;;;20.80;93.80;;;;;;4947974;28;20035;-76
2022/08/22 08:23:10;;;;;;;6.47;3.50;;;20.80;92.80;;;;;;4946056;28;20058;-76
2022/08/22 08:26:20;;;;;;;4.68;3.17;;;21.00;88.50;;;;;;4952949;28;20078;-77
2022/08/22 08:28:50;;;;;;;4.40;3.03;;;21.00;84.30;;;;;;4943286;28;20055;-78
2022/08/22 08:31:30;;;;;;;4.25;3.20;;;21.20;90.40;;;;;;4945928;28;20050;-77
2022/08/22 08:34:06;;;;;;;6.10;3.28;;;21.30;77.50;;;;;;4949192;28;20050;-77
2022/08/22 08:36:41;;;;;;;5.00;2.83;;;21.20;82.00;;;;;;4945156;28;20034;-77
2022/08/22 08:39:25;;;;;;;5.28;2.80;;;21.30;75.10;;;;;;4948853;28;20035;-77
2022/08/22 08:42:28;;;;;;;3.15;2.80;;;21.30;76.50;;;;;;4944919;28;20039;-77
2022/08/22 08:45:23;;;;;;;4.85;2.90;;;21.50;75.70;;;;;;4949868;28;20063;-77
2022/08/22 08:48:01;;;;;;;4.43;2.63;;;21.70;73.40;;;;;;4942723;28;20063;-76
2022/08/22 08:50:28;;;;;;;;;;;21.80;73.20;;;;;;4947781;28;20170;-77
2022/08/22 08:52:53;;;;;;;4.90;2.63;;;21.80;68.60;;;;;;4946356;28;20013;-77
2022/08/22 08:55:46;;;;;;;3.55;2.35;;;21.90;74.80;;;;;;4945684;28;20127;-78
2022/08/22 08:58:32;;;;;;;4.85;2.67;;;21.90;65.60;;;;;;4947292;28;20087;-76
2022/08/22 09:01:11;;;;;;;3.42;2.58;;;22.10;65.50;;;;;;4946152;28;20695;-77
2022/08/22 09:04:14;;;;;;;4.45;2.60;;;22.10;70.10;;;;;;4948148;28;20067;-76
2022/08/22 09:06:57;;;;;;;2.63;2.40;;;22.10;75.50;;;;;;4941135;28;20054;-78
2022/08/22 09:09:52;;;;;;;5.07;2.88;;;22.20;69.10;;;;;;4941234;28;20036;-78
2022/08/22 09:12:39;;;;;;;6.50;3.00;;;22.20;69.40;;;;;;4944823;28;20035;-77
2022/08/22 09:15:18;;;;;;;3.30;2.70;;;22.20;72.00;;;;;;4938916;28;20031;-78
2022/08/22 09:18:12;;;;;;;6.60;2.72;;;22.30;67.10;;;;;;4940669;28;20692;-77
2022/08/22 09:20:37;;;;;;;2.83;2.40;;;22.40;68.70;;;;;;4941626;28;20465;-78
2022/08/22 09:23:14;;;;;;;3.63;2.42;;;22.50;64.60;;;;;;4940939;28;20039;-77
2022/08/22 09:26:04;;;;;;;4.18;2.55;;;22.60;65.60;;;;;;4935652;28;20123;-76
2022/08/22 09:28:39;;;;;;;4.72;2.83;;;22.60;60.80;;;;;;4938732;28;20023;-75
2022/08/22 09:31:20;;;;;;;5.45;3.00;;;22.70;62.10;;;;;;4941154;28;20047;-75
2022/08/22 09:33:57;;;;;;;2.47;2.08;;;22.80;60.80;;;;;;4939591;28;20030;-76
2022/08/22 09:36:38;;;;;;;3.87;2.47;;;23.10;60.90;;;;;;4941416;28;20110;-75
2022/08/22 09:39:16;;;;;;;3.17;2.72;;;23.10;57.70;;;;;;4937486;28;20039;-75
2022/08/22 09:41:58;;;;;;;2.75;2.55;;;23.00;60.00;;;;;;4940202;28;20087;-76
2022/08/22 09:44:36;;;;;;;5.47;2.92;;;23.10;61.80;;;;;;4944841;28;20054;-77
2022/08/22 09:47:34;;;;;;;3.40;2.80;;;23.20;63.10;;;;;;4941466;28;20446;-76
2022/08/22 09:50:09;;;;;;;4.43;2.72;;;23.20;65.40;;;;;;4941993;28;20046;-77
2022/08/22 09:53:12;;;;;;;3.55;2.78;;;23.20;60.90;;;;;;4940343;28;20425;-76
2022/08/22 09:55:53;;;;;;;3.63;2.78;;;23.30;63.00;;;;;;4939765;28;20190;-74
2022/08/22 09:58:36;;;;;;;5.30;2.72;;;23.30;61.50;;;;;;4941398;28;20035;-77
2022/08/22 10:01:09;;;;;;;6.25;2.78;;;23.40;59.00;;;;;;4941196;28;20055;-75
2022/08/22 10:03:44;;;;;;;4.28;2.33;;;23.60;58.10;;;;;;4936246;28;20058;-75
2022/08/22 10:06:23;;;;;;;5.57;2.60;;;24.20;59.80;;;;;;4943132;28;21057;-75
2022/08/22 10:09:14;;;;;;;3.92;2.38;;;24.40;59.70;;;;;;4941144;28;20556;-77
2022/08/22 10:11:51;;;;;;;4.68;2.50;;;24.00;63.80;;;;;;4938409;28;20085;-74
2022/08/22 10:14:21;;;;;;;2.78;2.50;;;23.40;63.20;;;;;;4939227;28;21837;-74
2022/08/22 10:16:56;;;;;;;3.22;2.63;;;22.80;62.50;;;;;;4939805;28;20032;-75
2022/08/22 10:19:43;;;;;;;3.03;2.70;;;22.90;69.40;;;;;;4942756;28;20526;-77
2022/08/22 10:22:21;;;;;;;4.75;2.63;;;22.90;65.50;;;;;;4942187;28;20035;-72
2022/08/22 10:25:23;;;;;;;4.88;2.72;;;23.20;64.70;;;;;;4940514;28;20043;-73
2022/08/22 10:28:01;;;;;;;3.85;2.75;;;23.30;69.50;;;;;;4937641;28;20035;-74
2022/08/22 10:30:50;;;;;;;4.72;2.85;;;23.40;70.80;;;;;;4938668;28;20055;-74
2022/08/22 10:33:41;;;;;;;2.88;2.63;;;23.60;65.30;;;;;;4942243;28;20028;-73
2022/08/22 10:36:14;;;;;;;2.72;2.50;;;23.50;63.30;;;;;;4942215;28;20024;-73
2022/08/22 10:38:51;;;;;;;3.25;2.95;;;23.40;61.20;;;;;;4943469;28;22164;-74
2022/08/22 10:41:32;;;;;;;5.45;2.80;;;23.40;60.10;;;;;;4942431;28;20038;-74
2022/08/22 10:44:01;;;;;;;3.90;3.03;;;23.60;59.10;;;;;;4940857;28;20118;-76
2022/08/22 10:46:55;;;;;;;4.45;2.53;;;23.50;62.30;;;;;;4937718;28;20047;-76
2022/08/22 10:49:51;;;;;;;3.00;2.40;;;23.40;61.70;;;;;;4965261;28;20051;-76
2022/08/22 10:52:30;;;;;;;5.68;2.55;;;23.40;55.50;;;;;;4947312;28;20071;-74
2022/08/22 10:55:11;;;;;;;4.55;2.85;;;23.40;55.90;;;;;;4946046;28;20042;-75
2022/08/22 10:57:53;;;;;;;3.45;2.50;;;23.40;58.80;;;;;;4944244;28;20042;-75
2022/08/22 11:00:56;;;;;;;3.35;2.42;;;23.70;61.60;;;;;;4950616;28;20060;-75
2022/08/22 11:03:40;;;;;;;4.25;2.70;;;23.80;58.10;;;;;;4946694;28;20125;-75
2022/08/22 11:06:13;;;;;;;4.82;2.30;;;23.90;58.70;;;;;;4950315;28;20047;-75
2022/08/22 11:08:59;;;;;;;3.08;2.20;;;23.90;53.90;;;;;;4948756;28;20055;-75
2022/08/22 11:12:06;;;;;;;5.00;2.03;;;24.20;56.60;;;;;;4944710;28;20116;-76
2022/08/22 11:15:14;;;;;;;2.70;2.30;;;24.20;56.60;;;;;;4944686;28;20130;-77
2022/08/22 11:18:15;;;;;;;3.85;2.10;;;24.00;57.90;;;;;;4942237;28;20038;-73
2022/08/22 11:20:53;;;;;;;5.07;2.70;;;24.00;57.30;;;;;;4946000;28;20154;-75
2022/08/22 11:23:31;;;;;;;3.15;2.70;;;24.10;60.10;;;;;;4948142;28;20074;-75
2022/08/22 11:26:15;;;;;;;3.85;2.05;;;23.90;52.90;;;;;;4942793;28;20426;-75
2022/08/22 11:29:06;;;;;;;2.80;2.60;;;24.00;56.20;;;;;;4946950;28;20027;-74
2022/08/22 11:31:42;;;;;;;3.95;2.65;;;24.10;58.40;;;;;;4943902;28;20043;-75
2022/08/22 11:34:22;;;;;;;2.88;2.53;;;24.10;59.40;;;;;;4948943;28;20126;-75
2022/08/22 11:37:41;;;;;;;4.28;2.90;;;24.00;57.00;;;;;;4946819;28;20381;-75
2022/08/22 11:40:34;;;;;;;4.15;2.40;;;23.80;60.50;;;;;;4942234;28;20059;-74
2022/08/22 11:43:12;;;;;;;3.63;2.33;;;23.50;61.10;;;;;;4941512;28;20038;-74
2022/08/22 11:45:44;;;;;;;;;;;23.70;62.90;;;;;;4951841;29;21710;-75
2022/08/22 11:48:40;;;;;;;4.28;2.80;;;23.90;56.60;;;;;;4947619;28;19927;-74
2022/08/22 11:51:29;;;;;;;5.55;2.40;;;23.90;55.80;;;;;;4938873;28;20134;-74
2022/08/22 11:54:40;;;;;;;3.03;2.30;;;24.00;58.30;;;;;;4939165;28;20043;-75
2022/08/22 11:57:10;;;;;;;5.85;2.65;;;23.90;56.20;;;;;;4943992;29;20063;-75
2022/08/22 12:00:14;;;;;;;5.32;2.60;;;24.00;57.50;;;;;;4941104;28;20122;-76
2022/08/22 12:02:54;;;;;;;2.83;2.17;;;24.00;52.80;;;;;;4944064;28;20043;-73
2022/08/22 12:05:28;;;;;;;2.78;2.08;;;23.90;53.80;;;;;;4943220;28;20035;-75
2022/08/22 12:08:28;;;;;;;3.90;2.42;;;23.80;55.40;;;;;;4941779;28;20461;-75
2022/08/22 12:11:14;;;;;;;3.20;2.30;;;23.80;50.80;;;;;;4947969;29;20368;-76
2022/08/22 12:14:11;;;;;;;4.82;2.40;;;23.80;54.20;;;;;;4934092;28;20487;-75
2022/08/22 12:17:01;;;;;;;2.90;2.22;;;23.90;53.50;;;;;;4943562;28;20050;-75
2022/08/22 12:19:44;;;;;;;2.58;2.00;;;23.70;53.50;;;;;;4943939;28;20043;-75
2022/08/22 12:22:45;;;;;;;3.17;2.05;;;23.80;58.10;;;;;;4945365;28;20403;-74
2022/08/22 12:25:23;;;;;;;4.53;2.40;;;23.80;52.30;;;;;;4942479;28;20375;-76
2022/08/22 12:28:04;;;;;;;2.38;1.90;;;23.80;54.80;;;;;;4945660;28;20027;-74
2022/08/22 12:30:36;;;;;;;2.60;2.40;;;23.70;53.10;;;;;;4945374;28;20040;-74
2022/08/22 12:33:29;;;;;;;4.30;2.20;;;23.90;50.90;;;;;;4944426;28;20035;-74
2022/08/22 12:36:06;;;;;;;4.63;2.20;;;23.70;50.20;;;;;;4937945;28;20031;-74
2022/08/22 12:38:47;;;;;;;2.67;2.42;;;23.80;54.80;;;;;;4938960;28;20031;-75
2022/08/22 12:41:21;;;;;;;5.47;2.65;;;23.80;59.00;;;;;;4940993;28;20035;-77
2022/08/22 12:44:01;;;;;;;3.20;2.40;;;23.90;55.90;;;;;;4944993;28;20537;-77
2022/08/22 12:46:55;;;;;;;3.28;2.50;;;23.80;56.90;;;;;;4941217;28;20513;-73
2022/08/22 12:49:53;;;;;;;2.80;2.35;;;23.80;57.70;;;;;;4944868;28;20051;-75
2022/08/22 12:52:39;;;;;;;3.88;2.50;;;23.90;56.50;;;;;;4942723;28;20031;-77
2022/08/22 12:55:32;;;;;;;2.28;2.00;;;23.80;58.00;;;;;;4957179;28;20057;-75
2022/08/22 12:58:44;;;;;;;2.90;2.13;;;23.80;56.60;;;;;;4942403;28;22026;-74
2022/08/22 13:01:11;;;;;;;3.72;2.45;;;23.80;58.80;;;;;;4938135;28;20051;-73
2022/08/22 13:03:52;;;;;;;3.28;2.42;;;23.80;56.10;;;;;;4942287;28;20090;-74
2022/08/22 13:06:35;;;;;;;3.08;2.20;;;23.80;58.50;;;;;;4945818;28;20483;-74
2022/08/22 13:09:10;;;;;;;2.40;2.20;;;23.80;55.20;;;;;;4956525;28;20067;-81
2022/08/22 13:11:38;;;;;;;2.03;1.88;;;23.80;64.00;;;;;;4946015;29;20031;-81
2022/08/22 13:14:07;;;;;;;3.70;2.30;;;23.90;57.70;;;;;;4945791;28;20035;-81
2022/08/22 13:16:42;;;;;;;4.90;2.30;;;23.80;59.60;;;;;;4946613;28;20027;-80
2022/08/22 13:19:25;;;;;;;4.50;2.20;;;23.80;55.80;;;;;;4947198;28;20038;-82
2022/08/22 13:21:55;;;;;;;3.88;2.20;;;23.70;54.70;;;;;;4945061;29;20040;-80
2022/08/22 13:24:46;;;;;;;2.35;2.15;;;23.70;56.70;;;;;;4946899;28;20490;-90
2022/08/22 13:27:21;;;;;;;5.25;2.55;;;23.60;57.30;;;;;;4950056;29;20438;-89
2022/08/22 13:30:00;;;;;;;3.00;2.25;;;23.50;54.40;;;;;;4947762;28;20031;-92
2022/08/22 13:32:31;;;;;;;2.20;2.00;;;23.70;57.60;;;;;;4944450;28;20047;-92
2022/08/22 13:34:58;;;;;;;6.15;2.65;;;23.80;52.40;;;;;;4937570;28;20039;-92
2022/08/22 13:37:43;;;;;;;5.03;2.33;;;23.90;53.90;;;;;;4945550;28;20039;-92
2022/08/22 13:40:12;;;;;;;9.20;2.92;;;23.90;54.20;;;;;;4944033;28;20138;-92
2022/08/22 13:42:53;;;;;;;4.32;2.40;;;24.10;52.10;;;;;;4946665;28;20042;-93
2022/08/22 13:45:26;;;;;;;3.13;2.00;;;24.20;51.50;;;;;;4948370;28;20585;-92
2022/08/22 13:47:58;;;;;;;3.20;2.10;;;24.20;51.50;;;;;;4949562;28;20214;-92
2022/08/22 13:50:28;;;;;;;2.47;1.80;;;24.20;47.10;;;;;;4954104;28;20098;-92
2022/08/22 13:53:10;;;;;;;4.20;2.08;;;24.20;52.00;;;;;;4948436;28;20122;-92
2022/08/22 13:55:44;;;;;;;2.78;1.98;;;24.10;50.60;;;;;;4943759;28;20023;-92
2022/08/22 13:58:28;;;;;;;3.30;2.00;;;24.00;49.90;;;;;;4945094;28;20034;-90
2022/08/22 14:01:38;;;;;;;2.13;1.92;;;24.10;52.70;;;;;;4941481;28;20051;-91
2022/08/22 14:04:23;;;;;;;5.20;2.10;;;24.20;53.30;;;;;;4945125;28;20145;-91